Time;durP1;ratioP1;P1;durP2;ratioP2;P2;SDS_P1;SDS_P2;PMS_P1;PMS_P2;Temp;Humidity;BMP_temperature;BMP_pressure;BME280_temperature;BME280_humidity;BME280_pressure;Samples;Min_cycle;Max_cycle;Signal;HPM_P1;HPM_P2
2023/07/22 00:02:17;;;;;;;4.27;1.73;;;;;;;24.15;60.04;100909.66;5011034;28;20396;-74
2023/07/22 00:04:42;;;;;;;3.83;1.43;;;;;;;24.23;59.36;100911.88;5011348;28;20388;-75
2023/07/22 00:07:08;;;;;;;2.70;1.23;;;;;;;24.17;59.54;100918.34;5009929;28;20472;-74
2023/07/22 00:09:36;;;;;;;2.80;1.20;;;;;;;24.04;59.93;100900.59;5009533;28;20610;-76
2023/07/22 00:12:02;;;;;;;2.63;1.33;;;;;;;24.13;59.68;100879.28;5010038;28;20419;-75
2023/07/22 00:14:27;;;;;;;2.85;1.30;;;;;;;24.27;59.22;100874.25;5009270;28;20901;-75
2023/07/22 00:16:53;;;;;;;3.05;1.25;;;;;;;24.38;58.53;100851.59;5008970;28;20384;-75
2023/07/22 00:19:18;;;;;;;3.17;1.80;;;;;;;24.56;57.54;100844.97;5009697;28;20522;-75
2023/07/22 00:21:44;;;;;;;4.80;1.50;;;;;;;24.67;57.54;100862.13;5009776;28;20403;-74
2023/07/22 00:24:10;;;;;;;7.47;1.50;;;;;;;24.61;57.42;100864.81;5009521;28;20678;-74
2023/07/22 00:26:36;;;;;;;2.40;1.30;;;;;;;24.66;57.49;100847.75;5008477;28;20403;-75
2023/07/22 00:29:02;;;;;;;3.10;1.13;;;;;;;24.72;57.12;100844.03;5008481;28;20372;-75
2023/07/22 00:31:28;;;;;;;3.50;1.20;;;;;;;24.82;56.93;100823.47;5009499;28;20384;-75
2023/07/22 00:33:53;;;;;;;2.90;1.40;;;;;;;24.92;56.55;100809.94;5009280;28;20403;-74
2023/07/22 00:36:19;;;;;;;3.80;1.30;;;;;;;25.00;56.19;100825.72;5009517;28;20453;-76
2023/07/22 00:38:44;;;;;;;4.13;1.03;;;;;;;24.90;56.57;100818.38;5009171;28;20892;-76
2023/07/22 00:41:11;;;;;;;2.65;1.20;;;;;;;24.75;57.02;100815.56;5009491;28;20400;-75
2023/07/22 00:43:38;;;;;;;4.53;1.33;;;;;;;24.71;57.23;100809.84;5009414;28;20380;-76
2023/07/22 00:46:04;;;;;;;3.60;1.20;;;;;;;24.76;56.85;100811.78;5008152;28;20384;-74
2023/07/22 00:48:29;;;;;;;3.30;1.15;;;;;;;24.58;57.42;100840.13;5009390;28;20428;-74
2023/07/22 00:50:55;;;;;;;2.40;1.10;;;;;;;24.56;57.49;100840.41;5009068;28;20388;-73
2023/07/22 00:53:21;;;;;;;2.20;1.20;;;;;;;24.60;57.28;100827.94;5009051;28;20396;-73
2023/07/22 00:55:46;;;;;;;3.17;1.10;;;;;;;24.61;57.13;100835.00;5009323;28;20709;-74
2023/07/22 00:58:12;;;;;;;3.50;1.17;;;;;;;24.51;57.78;100836.81;5008851;28;20786;-75
2023/07/22 01:00:37;;;;;;;2.40;1.30;;;;;;;24.23;58.48;100831.41;5009006;28;20814;-74
2023/07/22 01:03:03;;;;;;;3.38;1.30;;;;;;;24.18;58.74;100820.56;5009186;28;20483;-75
2023/07/22 01:05:30;;;;;;;2.38;1.10;;;;;;;24.26;58.38;100830.09;5009067;28;20387;-75
2023/07/22 01:07:56;;;;;;;2.80;1.20;;;;;;;24.36;57.93;100835.63;5008566;28;20388;-75
2023/07/22 01:10:22;;;;;;;3.08;1.20;;;;;;;24.48;57.69;100840.84;5008993;28;20410;-74
2023/07/22 01:12:48;;;;;;;3.65;1.10;;;;;;;24.52;57.40;100841.13;5008935;28;20737;-74
2023/07/22 01:15:14;;;;;;;2.77;1.10;;;;;;;24.47;57.58;100843.78;5009165;28;20386;-74
2023/07/22 01:17:40;;;;;;;3.30;1.33;;;;;;;24.46;57.47;100848.41;5009243;28;20394;-74
2023/07/22 01:20:07;;;;;;;3.03;1.30;;;;;;;24.55;57.48;100844.16;5008950;28;20404;-74
2023/07/22 01:22:33;;;;;;;5.47;1.30;;;;;;;24.60;57.23;100827.13;5008536;28;20395;-74
2023/07/22 01:24:59;;;;;;;3.65;1.30;;;;;;;24.54;57.57;100814.63;5008638;28;20392;-74
2023/07/22 01:27:25;;;;;;;3.83;1.05;;;;;;;24.47;57.83;100803.16;5009836;28;20823;-74
2023/07/22 01:29:51;;;;;;;3.63;1.40;;;;;;;24.49;57.96;100803.69;5032042;28;20382;-74
2023/07/22 01:32:17;;;;;;;3.38;1.30;;;;;;;24.48;57.79;100813.72;5032086;28;20473;-74
2023/07/22 01:34:43;;;;;;;2.60;1.25;;;;;;;24.66;57.11;100838.81;5031965;28;20473;-74
2023/07/22 01:37:09;;;;;;;2.97;1.70;;;;;;;24.73;56.65;100853.78;5031726;28;20381;-74
2023/07/22 01:39:35;;;;;;;3.30;1.60;;;;;;;24.84;56.27;100843.81;5031385;28;20707;-74
2023/07/22 01:42:02;;;;;;;3.25;1.15;;;;;;;24.88;56.21;100844.09;5032418;28;20382;-74
2023/07/22 01:44:27;;;;;;;1.77;1.00;;;;;;;24.91;56.16;100843.59;5032569;28;20378;-75
2023/07/22 01:46:53;;;;;;;3.70;1.70;;;;;;;24.88;56.20;100841.38;5032645;28;20401;-75
2023/07/22 01:49:18;;;;;;;2.20;1.30;;;;;;;24.82;56.48;100829.69;5031321;28;20383;-75
2023/07/22 01:51:45;;;;;;;2.90;1.40;;;;;;;24.82;56.57;100826.19;5031862;28;20390;-75
2023/07/22 01:54:12;;;;;;;2.35;1.40;;;;;;;24.91;56.20;100849.81;5034241;28;20401;-75
2023/07/22 01:56:38;;;;;;;4.07;1.60;;;;;;;24.91;56.15;100855.25;5032252;28;20889;-75
2023/07/22 01:59:04;;;;;;;3.97;1.50;;;;;;;24.98;56.17;100849.59;5032087;28;20459;-75
2023/07/22 02:01:30;;;;;;;4.07;1.50;;;;;;;25.02;55.83;100844.47;5032415;28;20390;-75
2023/07/22 02:03:55;;;;;;;3.83;1.40;;;;;;;24.94;55.68;100838.44;5032201;28;20406;-74
2023/07/22 02:06:21;;;;;;;3.42;1.65;;;;;;;24.97;55.65;100840.66;5031700;28;20502;-75
2023/07/22 02:08:46;;;;;;;4.20;1.90;;;;;;;25.06;55.35;100840.13;5030940;28;20471;-74
2023/07/22 02:11:12;;;;;;;3.58;1.45;;;;;;;25.10;55.29;100850.19;5033231;28;20406;-74
2023/07/22 02:13:38;;;;;;;2.53;1.40;;;;;;;25.10;55.24;100842.06;5032274;28;20413;-75
2023/07/22 02:16:04;;;;;;;3.90;1.42;;;;;;;25.11;55.03;100840.16;5030623;28;20467;-74
2023/07/22 02:18:29;;;;;;;4.33;1.57;;;;;;;25.17;55.03;100849.94;5031857;28;20473;-75
2023/07/22 02:20:56;;;;;;;4.10;1.60;;;;;;;25.14;55.12;100850.50;5031464;28;20389;-75
2023/07/22 02:23:23;;;;;;;4.30;1.50;;;;;;;25.15;55.20;100863.75;5031547;28;20482;-75
2023/07/22 02:25:53;;;;;;;4.90;1.60;;;;;;;25.12;54.91;100869.75;5031879;28;20378;-74
2023/07/22 02:28:21;;;;;;;4.57;1.70;;;;;;;25.17;54.94;100883.34;5031696;28;20793;-75
2023/07/22 02:30:54;;;;;;;3.65;1.80;;;;;;;25.19;54.80;100889.31;5031576;28;20382;-75
2023/07/22 02:33:21;;;;;;;2.80;1.70;;;;;;;25.17;54.95;100885.19;5031649;28;20386;-74
2023/07/22 02:35:47;;;;;;;3.33;1.70;;;;;;;25.12;54.96;100890.59;5031086;28;20460;-75
2023/07/22 02:38:14;;;;;;;3.80;1.80;;;;;;;24.97;55.80;100894.06;5030721;28;20378;-75
2023/07/22 02:40:40;;;;;;;3.75;2.00;;;;;;;24.97;55.81;100902.19;5031700;28;20474;-76
2023/07/22 02:43:06;;;;;;;4.10;1.88;;;;;;;24.92;55.89;100900.28;5031749;28;20707;-75
2023/07/22 02:45:33;;;;;;;3.70;1.77;;;;;;;24.91;55.93;100897.81;5030290;28;20374;-75
2023/07/22 02:47:58;;;;;;;4.85;1.70;;;;;;;24.89;55.77;100903.50;5031030;28;20374;-74
2023/07/22 02:50:24;;;;;;;5.57;1.50;;;;;;;24.89;55.64;100919.78;5031175;28;20704;-74
2023/07/22 02:52:51;;;;;;;2.95;1.50;;;;;;;24.87;55.69;100927.34;5031239;28;20374;-74
2023/07/22 02:55:20;;;;;;;3.40;1.60;;;;;;;24.79;55.91;100925.13;5030330;28;20374;-74
2023/07/22 02:57:47;;;;;;;3.20;1.48;;;;;;;24.78;55.98;100934.34;5031090;28;20733;-74
2023/07/22 03:00:17;;;;;;;2.03;1.33;;;;;;;24.62;56.25;100936.09;5031283;28;20429;-74
2023/07/22 03:02:43;;;;;;;3.53;1.60;;;;;;;24.60;56.35;100946.41;5031297;28;20393;-75
2023/07/22 03:05:09;;;;;;;4.63;1.50;;;;;;;24.59;56.34;100952.88;5030743;28;20386;-75
2023/07/22 03:07:36;;;;;;;3.33;1.50;;;;;;;24.59;56.23;100955.59;5031927;28;20762;-75
2023/07/22 03:10:02;;;;;;;3.35;1.80;;;;;;;24.47;56.86;100954.91;5032205;28;20374;-75
2023/07/22 03:12:28;;;;;;;4.72;1.63;;;;;;;24.33;57.24;100957.22;5031578;28;20572;-74
2023/07/22 03:14:54;;;;;;;3.25;1.48;;;;;;;24.51;56.44;100959.56;5031144;28;20374;-75
2023/07/22 03:17:19;;;;;;;3.17;1.27;;;;;;;24.62;56.21;100963.22;5030565;28;20893;-75
2023/07/22 03:19:45;;;;;;;2.43;1.57;;;;;;;24.67;55.95;100957.00;5031179;28;20406;-74
2023/07/22 03:22:14;;;;;;;3.95;1.55;;;;;;;24.58;56.15;100952.06;5030822;28;20870;-75
2023/07/22 03:24:40;;;;;;;3.75;1.60;;;;;;;24.38;56.99;100949.97;5030748;28;20379;-75
2023/07/22 03:27:06;;;;;;;2.50;1.52;;;;;;;24.21;57.62;100944.63;5030320;28;20389;-76
2023/07/22 03:29:32;;;;;;;3.13;1.60;;;;;;;24.28;57.68;100947.16;5029844;28;21221;-74
2023/07/22 03:31:59;;;;;;;3.72;1.70;;;;;;;24.24;57.86;100954.16;5028551;28;20894;-74
2023/07/22 03:34:28;;;;;;;4.10;1.80;;;;;;;24.06;58.42;100947.19;5030078;28;20781;-75
2023/07/22 03:36:54;;;;;;;3.58;1.92;;;;;;;23.90;59.02;100940.78;5030104;28;20735;-75
2023/07/22 03:39:20;;;;;;;3.77;1.57;;;;;;;23.98;58.73;100944.94;5028707;28;20960;-74
2023/07/22 03:41:45;;;;;;;2.17;1.55;;;;;;;24.13;58.07;100928.84;5030916;28;20417;-74
2023/07/22 03:44:11;;;;;;;5.13;2.10;;;;;;;24.31;57.51;100918.72;5031810;28;20450;-74
2023/07/22 03:46:37;;;;;;;7.45;1.92;;;;;;;24.49;57.34;100926.50;5028921;28;20383;-75
2023/07/22 03:49:03;;;;;;;3.30;2.00;;;;;;;24.53;57.02;100926.81;5030249;28;20374;-75
2023/07/22 03:51:28;;;;;;;4.50;1.90;;;;;;;24.60;56.87;100924.72;5030215;28;20382;-74
2023/07/22 03:53:54;;;;;;;5.37;1.80;;;;;;;24.73;56.89;100920.75;5029142;28;20673;-75
2023/07/22 03:56:20;;;;;;;7.38;1.70;;;;;;;24.79;56.71;100908.84;5029117;28;20391;-75
2023/07/22 03:58:45;;;;;;;4.20;1.60;;;;;;;24.88;56.79;100915.41;5030500;28;20712;-75
2023/07/22 04:01:12;;;;;;;5.47;1.90;;;;;;;24.89;56.70;100910.81;5030331;28;20429;-75
2023/07/22 04:03:37;;;;;;;3.88;1.70;;;;;;;24.95;56.48;100924.13;5030019;28;20375;-75
2023/07/22 04:06:03;;;;;;;4.15;1.80;;;;;;;25.02;56.23;100936.66;5025603;28;20430;-75
2023/07/22 04:08:29;;;;;;;6.13;1.55;;;;;;;25.17;54.58;100936.75;5017420;28;20463;-72
2023/07/22 04:10:55;;;;;;;2.80;1.67;;;;;;;25.39;54.32;100936.66;5011567;28;20452;-72
2023/07/22 04:13:23;;;;;;;4.30;1.70;;;;;;;25.58;54.48;100949.75;5018171;28;20414;-72
2023/07/22 04:15:48;;;;;;;3.08;1.83;;;;;;;25.54;54.56;100963.84;5011291;28;20384;-72
2023/07/22 04:18:18;;;;;;;4.27;1.90;;;;;;;25.65;54.41;100967.44;5008779;28;20388;-74
2023/07/22 04:20:44;;;;;;;2.45;1.50;;;;;;;25.75;53.80;100966.66;5017327;28;20415;-74
2023/07/22 04:23:10;;;;;;;6.10;1.90;;;;;;;25.79;53.60;100946.03;5019591;28;20397;-75
2023/07/22 04:25:40;;;;;;;7.13;1.80;;;;;;;25.84;53.23;100951.50;5032808;28;20507;-75
2023/07/22 04:28:06;;;;;;;3.03;1.60;;;;;;;25.91;53.32;100953.94;5021991;28;20398;-75
2023/07/22 04:30:31;;;;;;;4.63;2.17;;;;;;;26.07;53.07;100958.41;5017523;28;20403;-75
2023/07/22 04:32:57;;;;;;;4.10;2.05;;;;;;;26.28;52.54;100972.00;5018997;28;20479;-74
2023/07/22 04:35:22;;;;;;;4.77;1.90;;;;;;;26.30;52.79;100986.94;5020708;28;20783;-74
2023/07/22 04:37:48;;;;;;;5.00;2.10;;;;;;;26.07;52.77;101006.44;5021156;28;20393;-75
2023/07/22 04:40:17;;;;;;;3.63;2.20;;;;;;;26.04;52.72;101017.88;5016635;28;21044;-75
2023/07/22 04:42:44;;;;;;;4.93;1.83;;;;;;;25.72;53.30;101013.34;5019108;28;20386;-75
2023/07/22 04:45:11;;;;;;;5.57;2.20;;;;;;;25.51;54.06;101007.81;5018356;28;20420;-75
2023/07/22 04:47:38;;;;;;;5.23;2.37;;;;;;;25.41;54.28;100999.63;5017571;28;20452;-75
2023/07/22 04:50:07;;;;;;;6.45;2.90;;;;;;;25.46;54.26;101013.22;5020075;28;20860;-75
2023/07/22 04:52:32;;;;;;;9.10;3.90;;;;;;;25.44;54.50;101030.84;5016706;28;20391;-75
2023/07/22 04:54:58;;;;;;;6.53;3.43;;;;;;;25.20;55.09;101044.75;5016615;28;20390;-75
2023/07/22 04:57:23;;;;;;;4.35;2.13;;;;;;;24.82;56.71;101053.94;5018924;28;20478;-75
2023/07/22 04:59:49;;;;;;;5.30;2.63;;;;;;;24.61;57.48;101059.97;5018216;28;20422;-75
2023/07/22 05:02:14;;;;;;;5.03;2.70;;;;;;;24.36;58.61;101062.38;5014196;28;20473;-75
2023/07/22 05:04:39;;;;;;;4.20;2.57;;;;;;;24.52;57.92;101025.41;5035857;28;20384;-76
2023/07/22 05:07:05;;;;;;;6.10;2.60;;;;;;;24.74;57.22;101003.69;5019727;28;20467;-76
2023/07/22 05:09:30;;;;;;;5.28;2.72;;;;;;;24.86;56.68;101001.63;5020635;28;20399;-76
2023/07/22 05:11:56;;;;;;;5.13;2.83;;;;;;;24.97;56.16;101006.09;5023334;28;20725;-76
2023/07/22 05:14:21;;;;;;;5.27;3.10;;;;;;;24.97;56.46;101014.22;5026230;28;20401;-75
2023/07/22 05:16:47;;;;;;;4.87;2.97;;;;;;;24.99;56.63;101027.50;5019227;28;20510;-76
2023/07/22 05:19:12;;;;;;;5.90;3.25;;;;;;;24.82;57.32;101034.97;5015701;28;20765;-75
2023/07/22 05:21:38;;;;;;;7.73;3.53;;;;;;;24.77;57.71;101055.50;5018449;28;20520;-76
2023/07/22 05:24:03;;;;;;;6.83;4.27;;;;;;;24.86;57.28;101065.91;5014363;28;20880;-75
2023/07/22 05:26:30;;;;;;;6.18;3.60;;;;;;;24.79;57.20;101091.34;5013777;28;20475;-74
2023/07/22 05:28:55;;;;;;;6.05;3.72;;;;;;;24.84;57.39;101079.72;5012072;28;20376;-74
2023/07/22 05:31:21;;;;;;;6.03;3.67;;;;;;;24.77;57.96;101082.63;5015311;28;20399;-75
2023/07/22 05:33:46;;;;;;;5.63;2.77;;;;;;;24.52;58.99;101061.44;5013005;28;20384;-76
2023/07/22 05:36:12;;;;;;;3.60;2.20;;;;;;;24.45;59.64;101055.41;5011035;28;20395;-75
2023/07/22 05:38:37;;;;;;;5.70;2.97;;;;;;;24.47;59.69;101047.88;5018192;28;20392;-75
2023/07/22 05:41:03;;;;;;;4.10;2.40;;;;;;;24.61;59.31;101016.63;5022904;28;20388;-75
2023/07/22 05:43:28;;;;;;;9.10;3.50;;;;;;;24.70;59.29;101037.81;5024872;28;20877;-84
2023/07/22 05:45:54;;;;;;;6.05;2.70;;;;;;;24.66;59.79;101069.22;5018889;28;20463;-84
2023/07/22 05:48:21;;;;;;;8.57;4.37;;;;;;;24.49;60.13;101020.50;5016848;28;20387;-80
2023/07/22 05:50:47;;;;;;;6.45;3.05;;;;;;;24.41;60.09;101046.97;5025359;28;20489;-83
2023/07/22 05:53:13;;;;;;;9.10;2.75;;;;;;;24.17;60.15;101048.34;5024548;28;20398;-82
2023/07/22 05:55:38;;;;;;;5.65;2.35;;;;;;;23.72;61.83;101074.53;5024296;28;20405;-81
2023/07/22 05:58:08;;;;;;;7.65;2.75;;;;;;;23.50;62.26;101033.06;5020939;28;20426;-80
2023/07/22 06:00:34;;;;;;;6.38;2.40;;;;;;;23.47;62.34;101045.22;5032881;28;20410;-79
2023/07/22 06:02:59;;;;;;;4.80;2.42;;;;;;;23.57;62.35;101052.66;5047952;28;20383;-79
2023/07/22 06:05:25;;;;;;;5.80;2.40;;;;;;;23.61;61.88;101024.03;5032551;28;20386;-79
2023/07/22 06:07:51;;;;;;;5.90;2.42;;;;;;;24.02;61.15;101002.91;5037195;28;20389;-77
2023/07/22 06:10:16;;;;;;;8.80;2.77;;;;;;;24.45;60.32;100987.66;5036243;28;20379;-77
2023/07/22 06:12:42;;;;;;;4.93;2.20;;;;;;;24.67;59.67;100986.81;5034650;28;20386;-78
2023/07/22 06:15:07;;;;;;;6.97;2.40;;;;;;;24.77;59.97;101003.19;5035241;28;20750;-78
2023/07/22 06:17:33;;;;;;;4.40;2.33;;;;;;;24.98;59.44;100987.91;5034864;28;20406;-78
2023/07/22 06:19:58;;;;;;;8.02;2.58;;;;;;;25.19;58.78;100973.41;5033414;28;20432;-75
2023/07/22 06:22:24;;;;;;;6.33;2.37;;;;;;;25.27;58.47;100963.19;5035021;28;20391;-77
2023/07/22 06:24:49;;;;;;;5.93;2.50;;;;;;;25.38;58.04;100945.88;5034213;28;20492;-76
2023/07/22 06:27:15;;;;;;;5.67;2.30;;;;;;;25.53;57.76;100923.41;5033365;28;20799;-75
2023/07/22 06:29:40;;;;;;;4.93;2.30;;;;;;;25.67;56.96;100932.69;5034096;28;20374;-76
2023/07/22 06:32:06;;;;;;;5.93;2.30;;;;;;;25.87;56.75;100931.94;5034107;28;20400;-76
2023/07/22 06:34:32;;;;;;;6.35;2.42;;;;;;;25.99;56.06;100912.72;5034477;28;20458;-75
2023/07/22 06:36:57;;;;;;;4.63;2.38;;;;;;;26.15;55.65;100899.19;5034362;28;20422;-77
2023/07/22 06:39:23;;;;;;;5.47;2.50;;;;;;;26.23;54.75;100890.47;5034301;28;20946;-77
2023/07/22 06:41:48;;;;;;;6.27;3.00;;;;;;;26.47;55.38;100894.28;5033183;28;20382;-76
2023/07/22 06:44:14;;;;;;;5.43;2.90;;;;;;;26.62;55.18;100888.06;5021082;28;20388;-75
2023/07/22 06:46:39;;;;;;;7.22;2.90;;;;;;;26.69;54.02;100879.63;5022329;28;20394;-76
2023/07/22 06:49:05;;;;;;;4.40;2.87;;;;;;;26.79;53.81;100876.88;5022344;28;20397;-76
2023/07/22 06:51:30;;;;;;;6.00;3.20;;;;;;;26.93;53.09;100871.69;5032416;28;20379;-74
2023/07/22 06:53:55;;;;;;;8.67;6.07;;;;;;;27.04;52.79;100864.31;5033015;28;20455;-77
2023/07/22 06:56:21;;;;;;;5.57;3.10;;;;;;;27.19;53.21;100886.03;5033535;28;20405;-75
2023/07/22 06:58:46;;;;;;;6.05;2.45;;;;;;;27.21;51.95;100889.28;5029285;28;20468;-75
2023/07/22 07:01:12;;;;;;;6.77;2.73;;;;;;;27.34;52.13;100889.84;5019937;28;20472;-76
2023/07/22 07:03:37;;;;;;;7.33;3.87;;;;;;;27.52;51.45;100896.56;5021271;28;20455;-76
2023/07/22 07:06:03;;;;;;;7.80;3.53;;;;;;;27.63;51.27;100885.31;5022368;28;20382;-76
2023/07/22 07:08:28;;;;;;;7.33;3.60;;;;;;;27.76;50.68;100891.25;5024890;28;20398;-76
2023/07/22 07:10:54;;;;;;;4.10;2.30;;;;;;;27.89;50.82;100892.53;5031443;28;20447;-76
2023/07/22 07:13:19;;;;;;;8.10;4.10;;;;;;;28.22;50.05;100901.88;5017937;28;20384;-76
2023/07/22 07:15:48;;;;;;;4.90;2.70;;;;;;;28.33;49.05;100908.88;5017526;28;20405;-76
2023/07/22 07:18:14;;;;;;;5.15;2.53;;;;;;;28.41;48.68;100927.38;5034168;28;20894;-76
2023/07/22 07:20:39;;;;;;;4.70;2.00;;;;;;;28.70;47.04;100920.31;5033802;28;20414;-76
2023/07/22 07:23:05;;;;;;;6.10;2.20;;;;;;;28.75;45.92;100923.81;5027322;28;20392;-75
2023/07/22 07:25:30;;;;;;;7.53;3.10;;;;;;;28.97;46.21;100927.97;5025244;28;20536;-76
2023/07/22 07:27:56;;;;;;;6.87;3.23;;;;;;;29.24;45.44;100932.91;5034036;28;20452;-76
2023/07/22 07:30:21;;;;;;;6.22;2.90;;;;;;;29.37;44.75;100931.41;5033304;28;20386;-76
2023/07/22 07:32:47;;;;;;;7.57;3.25;;;;;;;29.38;43.91;100935.75;5031140;28;20382;-76
2023/07/22 07:35:12;;;;;;;5.23;2.80;;;;;;;29.60;43.91;100931.66;5017301;28;20830;-76
2023/07/22 07:37:37;;;;;;;5.40;2.70;;;;;;;29.84;43.86;100934.41;5030409;28;20401;-76
2023/07/22 07:40:04;;;;;;;8.80;2.80;;;;;;;29.97;43.34;100930.91;5033630;28;20425;-76
2023/07/22 07:42:29;;;;;;;4.47;2.50;;;;;;;30.11;43.40;100937.25;5030358;28;20802;-75
2023/07/22 07:44:54;;;;;;;5.87;2.53;;;;;;;29.83;43.91;100947.22;5011497;28;20861;-75
2023/07/22 07:47:20;;;;;;;6.60;2.50;;;;;;;29.73;44.95;100950.09;5029617;28;20433;-75
2023/07/22 07:49:46;;;;;;;4.30;2.10;;;;;;;29.72;45.54;100942.97;5021104;28;20395;-75
2023/07/22 07:52:11;;;;;;;5.50;2.30;;;;;;;29.82;45.23;100933.84;5029040;28;20437;-75
2023/07/22 07:54:36;;;;;;;5.93;2.40;;;;;;;29.84;45.13;100931.66;5030487;28;21074;-75
2023/07/22 07:57:02;;;;;;;6.70;2.35;;;;;;;29.96;45.00;100928.47;5031645;28;20870;-75
2023/07/22 07:59:28;;;;;;;6.30;2.55;;;;;;;29.64;45.00;100932.69;5046919;28;20680;-76
2023/07/22 08:01:53;;;;;;;5.93;2.17;;;;;;;29.88;45.04;100924.50;5028006;28;20458;-76
2023/07/22 08:04:18;;;;;;;6.73;2.33;;;;;;;29.80;44.23;100914.22;5022234;28;20396;-74
2023/07/22 08:06:45;;;;;;;5.83;2.50;;;;;;;30.02;44.29;100914.44;5020508;28;20469;-74
2023/07/22 08:09:10;;;;;;;6.18;2.10;;;;;;;30.10;43.99;100919.22;5020965;28;20390;-76
2023/07/22 08:11:37;;;;;;;3.97;2.20;;;;;;;29.99;44.15;100925.97;5031109;28;20386;-76
2023/07/22 08:14:05;;;;;;;5.35;2.20;;;;;;;29.97;44.55;100908.25;5021078;28;21335;-76
2023/07/22 08:16:31;;;;;;;4.50;2.30;;;;;;;30.11;44.64;100923.59;5038079;28;20418;-76
2023/07/22 08:18:56;;;;;;;7.63;2.70;;;;;;;30.31;44.85;100922.47;5017399;28;20386;-76
2023/07/22 08:21:21;;;;;;;6.05;2.40;;;;;;;29.85;45.40;100933.28;5011559;28;20942;-76
2023/07/22 08:23:47;;;;;;;5.63;2.30;;;;;;;29.69;45.78;100929.91;5009822;28;20380;-75
2023/07/22 08:26:13;;;;;;;5.68;2.45;;;;;;;29.86;45.93;100930.25;5012161;28;20699;-75
2023/07/22 08:28:38;;;;;;;4.23;2.10;;;;;;;29.87;45.57;100925.59;5011042;28;20922;-77
2023/07/22 08:31:04;;;;;;;7.47;2.50;;;;;;;30.09;45.47;100925.00;5013033;28;20376;-75
2023/07/22 08:33:30;;;;;;;8.48;2.47;;;;;;;30.06;45.60;100929.13;5010092;28;20380;-75
2023/07/22 08:35:56;;;;;;;7.20;2.88;;;;;;;30.30;45.55;100939.97;5010182;28;20381;-76
2023/07/22 08:38:22;;;;;;;6.95;2.72;;;;;;;30.32;45.37;100942.41;5012236;28;20475;-76
2023/07/22 08:40:50;;;;;;;7.13;2.63;;;;;;;29.95;46.32;100937.81;5011062;28;20400;-76
2023/07/22 08:43:20;;;;;;;5.50;2.30;;;;;;;30.05;45.95;100930.25;5012239;28;20389;-75
2023/07/22 08:45:47;;;;;;;4.97;2.40;;;;;;;30.14;45.88;100933.13;5012450;28;20375;-76
2023/07/22 08:48:18;;;;;;;4.97;2.13;;;;;;;30.21;45.35;100939.03;5011870;28;20376;-76
2023/07/22 08:50:51;;;;;;;4.78;2.20;;;;;;;30.21;44.94;100932.75;5011637;28;20973;-75
2023/07/22 08:53:21;;;;;;;6.13;2.30;;;;;;;30.11;44.83;100934.53;5012185;28;20392;-78
2023/07/22 08:55:50;;;;;;;5.93;2.60;;;;;;;29.91;45.25;100943.84;5011623;28;20394;-76
2023/07/22 08:58:16;;;;;;;3.88;1.88;;;;;;;29.77;45.56;100934.75;5011508;28;20754;-75
2023/07/22 09:00:43;;;;;;;5.32;2.72;;;;;;;30.19;45.07;100943.16;5011798;28;20885;-76
2023/07/22 09:03:10;;;;;;;7.38;2.80;;;;;;;30.41;44.18;100951.59;5012113;28;20753;-77
2023/07/22 09:05:36;;;;;;;6.97;2.38;;;;;;;30.45;44.34;100957.28;5012923;28;20376;-76
2023/07/22 09:08:03;;;;;;;5.30;2.20;;;;;;;30.28;44.08;100963.25;5015172;28;20394;-75
2023/07/22 09:10:30;;;;;;;6.43;2.47;;;;;;;30.38;44.01;100971.34;5015919;28;20368;-76
2023/07/22 09:12:56;;;;;;;5.22;2.35;;;;;;;30.58;43.38;100955.72;5014690;28;20387;-76
2023/07/22 09:15:23;;;;;;;6.73;2.73;;;;;;;30.67;43.78;100960.19;5013644;28;20388;-75
2023/07/22 09:17:50;;;;;;;6.97;2.20;;;;;;;30.72;43.68;100956.56;5013151;28;20396;-77
2023/07/22 09:20:16;;;;;;;5.10;2.47;;;;;;;30.46;44.16;100961.66;5011681;28;20507;-76
2023/07/22 09:22:50;;;;;;;4.00;2.20;;;;;;;30.55;44.39;100943.44;5012062;28;20781;-77
2023/07/22 09:25:24;;;;;;;5.30;2.38;;;;;;;30.58;43.93;100925.63;5011758;28;20408;-75
2023/07/22 09:27:53;;;;;;;4.20;2.27;;;;;;;30.66;44.41;100935.88;5014166;28;20386;-76
2023/07/22 09:30:25;;;;;;;6.50;3.05;;;;;;;30.74;44.02;100931.63;5018180;28;20468;-77
2023/07/22 09:32:56;;;;;;;5.32;2.63;;;;;;;30.79;43.49;100942.47;5011832;28;20864;-76
2023/07/22 09:35:22;;;;;;;4.90;2.35;;;;;;;30.90;43.67;100935.72;5010700;28;20758;-76
2023/07/22 09:37:48;;;;;;;5.95;2.42;;;;;;;31.08;43.62;100936.81;5010965;28;20475;-76
2023/07/22 09:40:24;;;;;;;5.47;2.38;;;;;;;31.27;43.24;100944.09;5011077;28;20507;-75
2023/07/22 09:42:54;;;;;;;5.53;2.45;;;;;;;31.06;43.21;100928.88;5010318;28;20451;-76
2023/07/22 09:45:25;;;;;;;6.70;2.47;;;;;;;31.27;43.28;100936.69;5011193;28;20521;-76
2023/07/22 09:47:52;;;;;;;5.43;2.10;;;;;;;31.12;43.17;100931.53;5011888;28;20815;-76
2023/07/22 09:50:23;;;;;;;5.18;2.30;;;;;;;31.08;43.77;100925.00;5014407;28;20426;-76
2023/07/22 09:52:50;;;;;;;4.75;2.33;;;;;;;31.41;43.44;100929.28;5014746;28;20431;-77
2023/07/22 09:55:18;;;;;;;4.68;2.17;;;;;;;31.43;43.44;100928.97;5014861;28;20375;-77
2023/07/22 09:57:46;;;;;;;4.37;2.30;;;;;;;31.25;43.04;100917.00;5014414;28;20470;-75
2023/07/22 10:00:14;;;;;;;3.85;2.13;;;;;;;31.15;43.22;100920.78;5014508;28;20918;-76
2023/07/22 10:02:43;;;;;;;4.10;2.13;;;;;;;31.15;42.99;100923.53;5015342;28;20387;-79
2023/07/22 10:05:14;;;;;;;6.35;2.30;;;;;;;31.31;43.20;100913.03;5015258;28;20387;-76
2023/07/22 10:07:44;;;;;;;4.57;2.47;;;;;;;31.45;42.73;100922.06;5015059;28;21566;-76
2023/07/22 10:10:15;;;;;;;5.63;2.47;;;;;;;31.29;42.93;100922.69;5015321;28;20726;-74
2023/07/22 10:12:42;;;;;;;4.90;2.40;;;;;;;31.14;42.79;100908.19;5015452;28;20388;-76
2023/07/22 10:15:09;;;;;;;5.90;2.20;;;;;;;31.06;43.49;100919.84;5014603;28;20408;-75
2023/07/22 10:17:35;;;;;;;8.73;3.10;;;;;;;31.33;43.17;100927.28;5015664;28;20450;-75
2023/07/22 10:20:06;;;;;;;5.50;2.50;;;;;;;31.16;42.91;100919.66;5014565;28;20403;-77
2023/07/22 10:22:35;;;;;;;5.05;2.63;;;;;;;31.25;43.50;100917.00;5015148;28;20415;-77
2023/07/22 10:25:03;;;;;;;7.70;2.70;;;;;;;31.33;43.47;100916.31;5015004;28;20380;-76
2023/07/22 10:27:31;;;;;;;7.90;2.80;;;;;;;31.26;43.21;100915.91;5015021;28;20380;-76
2023/07/22 10:29:56;;;;;;;6.55;2.63;;;;;;;31.33;43.04;100919.06;5014756;28;20403;-76
2023/07/22 10:32:22;;;;;;;5.83;2.63;;;;;;;31.41;43.20;100909.31;5014308;28;21082;-76
2023/07/22 10:34:48;;;;;;;5.97;2.42;;;;;;;31.48;43.17;100915.22;5030456;28;20386;-77
2023/07/22 10:37:13;;;;;;;6.75;2.42;;;;;;;31.20;43.64;100922.59;5039638;28;20450;-74
2023/07/22 10:39:39;;;;;;;4.85;2.45;;;;;;;31.17;43.28;100907.59;5034918;28;20985;-76
2023/07/22 10:42:05;;;;;;;8.73;2.92;;;;;;;30.93;43.54;100913.25;5033641;28;20374;-76
2023/07/22 10:44:32;;;;;;;7.10;2.97;;;;;;;31.29;43.20;100909.00;5034667;28;20525;-76
2023/07/22 10:46:59;;;;;;;6.68;2.50;;;;;;;31.61;43.28;100905.34;5033589;28;20386;-77
2023/07/22 10:49:41;;;;;;;6.47;2.72;;;;;;;31.61;42.83;100914.38;5034465;28;20403;-77
2023/07/22 10:52:07;;;;;;;7.53;2.85;;;;;;;31.53;43.09;100898.66;5033804;28;20847;-75
2023/07/22 10:54:35;;;;;;;7.40;3.00;;;;;;;31.73;43.06;100902.03;5033221;28;20383;-77
2023/07/22 10:57:24;;;;;;;5.40;2.70;;;;;;;31.59;42.86;100900.16;5034021;28;20406;-76
2023/07/22 10:59:51;;;;;;;5.18;2.85;;;;;;;31.83;42.03;100908.13;5035587;28;20417;-76
2023/07/22 11:02:24;;;;;;;5.13;3.20;;;;;;;31.93;42.28;100885.16;5036584;28;20402;-76
2023/07/22 11:04:50;;;;;;;8.60;3.00;;;;;;;32.05;42.10;100901.06;5034338;28;20371;-76
2023/07/22 11:07:15;;;;;;;5.40;2.90;;;;;;;32.06;41.34;100894.47;5034726;28;20763;-77
2023/07/22 11:09:42;;;;;;;5.20;2.55;;;;;;;31.94;40.59;100891.44;5034156;28;20489;-75
2023/07/22 11:12:17;;;;;;;6.28;2.65;;;;;;;32.10;40.91;100889.19;5033716;28;20410;-75
2023/07/22 11:14:52;;;;;;;6.30;2.65;;;;;;;31.90;40.66;100887.69;5032089;28;20823;-76
2023/07/22 11:17:29;;;;;;;5.20;2.83;;;;;;;31.73;41.55;100891.91;5034739;28;20400;-76
2023/07/22 11:19:56;;;;;;;4.40;2.50;;;;;;;32.01;41.30;100887.13;5036458;28;20897;-75
2023/07/22 11:22:21;;;;;;;6.65;2.75;;;;;;;32.49;40.60;100893.16;5033509;28;20383;-77